トロント/ピアソン の空港の天気 - METARとTAF

トロント・ピアソン国際空港 ( CYYZ / YYZ ) - カナダ オンタリオ州トロント
飛行場実況気象(Metar)
観測時間10/19 23:00 EDT (10/20 03:00 UTC)
風向・風速西 4m/s
視程10km以上
天気現象
少しの雲 雲底高度 7920m
気温10℃
湿度54%
気圧1019.2hPa
METARCYYZ 200300Z 26008KT 15SM FEW260 10/01 A3009 RMK CI1 SLP192
過去の天気等 Google飛行場航空写真 Wunderground天気予報

過去48時間のMETAR

飛行場予報(TAF)
発表時間: 10/19 22:39 EDT (10/20 02:39 UTC)
予報対象時間: 19日23時 EDT ~ 21日2時 EDT
風向・風速西 4m/s
視程10km以上
全天の4割程度の雲 雲底高度 7,320m
20日2時 EDT から
風向・風速西北西 4m/s
視程10km以上
なし
20日8時 EDT ~ 20日10時 EDT に徐々に
風向・風速南南西 3m/s
20日10時 EDT から
風向・風速南南西 6m/s
視程10km以上
少しの雲 雲底高度 4,570m
20日22時 EDT から
風向・風速西南西 4m/s
視程10km以上
なし
TAF CYYZ 200239Z 2003/2106 26008KT P6SM SCT240
FM200600 30008KT P6SM SKC
BECMG 2012/2014 20006KT
FM201400 21012KT P6SM FEW150
FM210200 25008KT P6SM SKC RMK NXT FCST BY 200600Z